Time;durP1;ratioP1;P1;durP2;ratioP2;P2;SDS_P1;SDS_P2;PMS_P1;PMS_P2;Temp;Humidity;BMP_temperature;BMP_pressure;BME280_temperature;BME280_humidity;BME280_pressure;Samples;Min_cycle;Max_cycle;Signal;HPM_P1;HPM_P2
2022/05/11 00:00:06;;;;;;;;;;;20.30;56.60;;;;;;5149097;27;19923;-50
2022/05/11 00:02:32;;;;;;;;;;;21.00;59.20;;;;;;5143799;27;20406;-53
2022/05/11 00:04:57;;;;;;;;;;;21.60;58.70;;;;;;5147922;27;20018;-58
2022/05/11 00:07:23;;;;;;;;;;;20.80;56.50;;;;;;5145159;27;19934;-50
2022/05/11 00:09:49;;;;;;;;;;;20.20;55.90;;;;;;5140719;27;19950;-51
2022/05/11 00:12:15;;;;;;;;;;;19.80;55.50;;;;;;5148464;27;19927;-50
2022/05/11 00:14:41;;;;;;;;;;;19.90;54.70;;;;;;5143298;27;20334;-51
2022/05/11 00:17:06;;;;;;;;;;;20.10;56.40;;;;;;5143685;27;20025;-51
2022/05/11 00:19:32;;;;;;;;;;;21.00;58.90;;;;;;5148937;27;19931;-53
2022/05/11 00:21:58;;;;;;;;;;;21.50;58.50;;;;;;5143535;27;19974;-52
2022/05/11 00:24:25;;;;;;;;;;;20.60;56.30;;;;;;5145455;27;19923;-58
2022/05/11 00:26:51;;;;;;;;;;;20.30;55.40;;;;;;5145618;27;19982;-48
2022/05/11 00:29:17;;;;;;;;;;;20.00;54.70;;;;;;5141570;27;20025;-49
2022/05/11 00:31:43;;;;;;;;;;;19.90;54.70;;;;;;5148545;27;19934;-48
2022/05/11 00:34:08;;;;;;;;;;;19.70;54.80;;;;;;5124593;27;19923;-49
2022/05/11 00:36:34;;;;;;;;;;;20.00;55.70;;;;;;5143210;27;19936;-49
2022/05/11 00:39:00;;;;;;;;;;;20.80;59.40;;;;;;5130112;27;20285;-50
2022/05/11 00:41:26;;;;;;;;;;;21.30;59.60;;;;;;5143256;27;19984;-49
2022/05/11 00:43:54;;;;;;;;;;;21.00;56.90;;;;;;5124463;27;19983;-53
2022/05/11 00:46:21;;;;;;;;;;;20.30;56.00;;;;;;5145442;27;20010;-51
2022/05/11 00:51:45;;;;;;;;;;;19.80;54.50;;;;;;5142785;27;19999;-49
2022/05/11 00:54:11;;;;;;;;;;;20.10;56.90;;;;;;5148613;27;19923;-50
2022/05/11 00:56:38;;;;;;;;;;;21.00;59.40;;;;;;5142774;27;19923;-51
2022/05/11 00:59:08;;;;;;;;;;;21.50;58.60;;;;;;5129989;27;19980;-49
2022/05/11 01:01:34;;;;;;;;;;;20.50;56.30;;;;;;5144482;27;19927;-48
2022/05/11 01:04:02;;;;;;;;;;;20.00;55.30;;;;;;5140209;27;19941;-50
2022/05/11 01:06:28;;;;;;;;;;;19.80;54.50;;;;;;5126355;27;19994;-48
2022/05/11 01:08:53;;;;;;;;;;;19.80;55.40;;;;;;5142107;27;19934;-48
2022/05/11 01:11:19;;;;;;;;;;;20.70;58.70;;;;;;5142273;27;19984;-48
2022/05/11 01:13:45;;;;;;;;;;;21.30;58.50;;;;;;5147781;27;19973;-51
2022/05/11 01:16:11;;;;;;;;;;;21.00;55.90;;;;;;5142455;27;19923;-49
2022/05/11 01:18:38;;;;;;;;;;;20.20;55.00;;;;;;5144029;27;19923;-53
2022/05/11 01:21:04;;;;;;;;;;;19.80;54.70;;;;;;5146452;27;19945;-49
2022/05/11 01:23:36;;;;;;;;;;;19.70;54.10;;;;;;5119504;27;19934;-48
2022/05/11 01:26:01;;;;;;;;;;;20.20;57.10;;;;;;5128925;27;20291;-48
2022/05/11 01:28:27;;;;;;;;;;;21.10;58.20;;;;;;5141968;27;19930;-50
2022/05/11 01:30:59;;;;;;;;;;;21.40;56.10;;;;;;5142374;27;19923;-46
2022/05/11 01:33:25;;;;;;;;;;;20.30;55.20;;;;;;5147703;27;20405;-50
2022/05/11 01:36:09;;;;;;;;;;;20.00;54.30;;;;;;5142270;27;19923;-47
2022/05/11 01:38:42;;;;;;;;;;;19.90;53.70;;;;;;5142530;27;19930;-47
2022/05/11 01:41:09;;;;;;;;;;;20.40;57.30;;;;;;5144421;27;19923;-47
2022/05/11 01:43:36;;;;;;;;;;;21.30;57.10;;;;;;5141257;27;20412;-48
2022/05/11 01:46:02;;;;;;;;;;;21.30;55.20;;;;;;5121609;27;19996;-48
2022/05/11 01:48:28;;;;;;;;;;;20.30;54.50;;;;;;5147502;27;19972;-49
2022/05/11 01:50:54;;;;;;;;;;;20.00;54.20;;;;;;5141751;27;19923;-46
2022/05/11 01:53:20;;;;;;;;;;;19.80;53.80;;;;;;5145572;27;19927;-55
2022/05/11 01:55:45;;;;;;;;;;;19.80;54.20;;;;;;5142997;27;19940;-47
2022/05/11 01:58:11;;;;;;;;;;;20.70;57.20;;;;;;5121842;27;19938;-48
2022/05/11 02:00:37;;;;;;;;;;;21.40;56.60;;;;;;5145255;27;19938;-50
2022/05/11 02:03:03;;;;;;;;;;;20.80;55.40;;;;;;5141648;27;19930;-48
2022/05/11 02:08:13;;;;;;;;;;;19.80;54.20;;;;;;5147102;27;20349;-49
2022/05/11 02:10:39;;;;;;;;;;;19.80;53.50;;;;;;5141744;27;19923;-47
2022/05/11 02:13:05;;;;;;;;;;;20.30;56.20;;;;;;5141692;27;20334;-48
2022/05/11 02:15:31;;;;;;;;;;;21.20;56.80;;;;;;5128379;27;19972;-51
2022/05/11 02:17:57;;;;;;;;;;;21.30;54.70;;;;;;5138560;27;19923;-47
2022/05/11 02:20:22;;;;;;;;;;;20.30;54.70;;;;;;5146104;27;19973;-48
2022/05/11 02:22:48;;;;;;;;;;;20.00;54.00;;;;;;5141177;27;19982;-48
2022/05/11 02:25:15;;;;;;;;;;;19.80;53.70;;;;;;5141376;27;19930;-47
2022/05/11 02:27:41;;;;;;;;;;;20.00;54.60;;;;;;5146752;27;20392;-49
2022/05/11 02:30:08;;;;;;;;;;;20.90;56.80;;;;;;5141365;27;19927;-47
2022/05/11 02:32:34;;;;;;;;;;;21.60;55.70;;;;;;5141516;27;19923;-47
2022/05/11 02:35:12;;;;;;;;;;;20.80;54.70;;;;;;5145073;27;19938;-50
2022/05/11 02:37:59;;;;;;;;;;;20.20;54.10;;;;;;5139359;27;19927;-50
2022/05/11 02:40:25;;;;;;;;;;;19.90;53.30;;;;;;5140383;27;19923;-49
2022/05/11 02:42:52;;;;;;;;;;;19.90;54.00;;;;;;5146473;27;19935;-48
2022/05/11 02:45:17;;;;;;;;;;;20.80;56.70;;;;;;5141028;27;19971;-46
2022/05/11 02:47:43;;;;;;;;;;;21.40;55.90;;;;;;5141387;27;19923;-49
2022/05/11 02:50:10;;;;;;;;;;;20.60;55.10;;;;;;5146775;27;20279;-47
2022/05/11 02:52:36;;;;;;;;;;;20.20;54.20;;;;;;5140832;27;19965;-46
2022/05/11 02:55:04;;;;;;;;;;;19.90;53.70;;;;;;5124910;27;20295;-49
2022/05/11 02:57:30;;;;;;;;;;;19.80;53.30;;;;;;5140319;27;19923;-49
2022/05/11 02:59:57;;;;;;;;;;;20.20;55.70;;;;;;5140771;27;20346;-49
2022/05/11 03:02:23;;;;;;;;;;;21.00;56.90;;;;;;5146375;27;20026;-47
2022/05/11 03:04:49;;;;;;;;;;;21.60;55.40;;;;;;5122756;27;20399;-47
2022/05/11 03:07:15;;;;;;;;;;;20.40;54.70;;;;;;5144552;27;20018;-48
2022/05/11 03:09:41;;;;;;;;;;;19.90;54.30;;;;;;5150385;27;19930;-50
2022/05/11 03:12:07;;;;;;;;;;;19.80;53.90;;;;;;5142652;27;20274;-47
2022/05/11 03:14:33;;;;;;;;;;;19.70;53.40;;;;;;5147902;27;20022;-51
2022/05/11 03:16:59;;;;;;;;;;;20.60;56.90;;;;;;5125667;27;19930;-48
2022/05/11 03:19:25;;;;;;;;;;;21.40;56.30;;;;;;5144435;27;20045;-50
2022/05/11 03:21:52;;;;;;;;;;;21.10;54.60;;;;;;5149617;27;20370;-50
2022/05/11 03:24:18;;;;;;;;;;;20.20;54.40;;;;;;5144142;27;19933;-48
2022/05/11 03:26:43;;;;;;;;;;;19.80;53.90;;;;;;5144453;27;20163;-49
2022/05/11 03:29:11;;;;;;;;;;;19.70;53.60;;;;;;5149588;27;19923;-48
2022/05/11 03:31:37;;;;;;;;;;;19.70;54.10;;;;;;5141159;27;20388;-48
2022/05/11 03:36:50;;;;;;;;;;;21.40;56.60;;;;;;5149658;27;19929;-50
2022/05/11 03:39:16;;;;;;;;;;;21.00;54.60;;;;;;5144246;27;20293;-46
2022/05/11 03:41:42;;;;;;;;;;;20.30;54.10;;;;;;5148795;27;19930;-55
2022/05/11 03:44:08;;;;;;;;;;;19.80;54.00;;;;;;5145092;27;20526;-47
2022/05/11 03:46:34;;;;;;;;;;;19.80;53.30;;;;;;5144021;27;19931;-48
2022/05/11 03:49:00;;;;;;;;;;;20.30;56.00;;;;;;5147374;27;19930;-48
2022/05/11 03:51:26;;;;;;;;;;;21.20;56.40;;;;;;5142286;27;20298;-48
2022/05/11 03:53:51;;;;;;;;;;;21.60;54.20;;;;;;5143535;27;19929;-49
2022/05/11 03:56:18;;;;;;;;;;;20.30;54.50;;;;;;5149258;27;19927;-48
2022/05/11 03:58:45;;;;;;;;;;;19.90;53.80;;;;;;5143640;27;19927;-48
2022/05/11 04:01:11;;;;;;;;;;;19.90;53.00;;;;;;5145527;27;19929;-52
2022/05/11 04:03:37;;;;;;;;;;;20.20;54.90;;;;;;5148037;27;19923;-50
2022/05/11 04:06:03;;;;;;;;;;;21.00;56.50;;;;;;5143511;27;19934;-50
2022/05/11 04:08:29;;;;;;;;;;;21.50;55.20;;;;;;5146182;27;20845;-50
2022/05/11 04:10:54;;;;;;;;;;;20.30;55.20;;;;;;5142891;27;19931;-48
2022/05/11 04:13:20;;;;;;;;;;;20.20;53.50;;;;;;5143322;27;19951;-47
2022/05/11 04:15:50;;;;;;;;;;;20.00;52.90;;;;;;5149015;27;20331;-49
2022/05/11 04:18:16;;;;;;;;;;;19.80;52.80;;;;;;5142592;27;20445;-50
2022/05/11 04:20:42;;;;;;;;;;;20.40;56.20;;;;;;5143517;27;19922;-51
2022/05/11 04:23:08;;;;;;;;;;;21.20;56.30;;;;;;5148978;27;19930;-50
2022/05/11 04:25:34;;;;;;;;;;;21.30;54.50;;;;;;5141362;27;20290;-50
2022/05/11 04:28:01;;;;;;;;;;;20.00;54.80;;;;;;5146746;27;19927;-47
2022/05/11 04:30:31;;;;;;;;;;;19.90;53.50;;;;;;5143112;27;20104;-46
2022/05/11 04:33:00;;;;;;;;;;;20.30;55.40;;;;;;5142975;27;20279;-50
2022/05/11 04:35:32;;;;;;;;;;;21.30;55.60;;;;;;5148444;27;20021;-46
2022/05/11 04:37:58;;;;;;;;;;;21.40;53.90;;;;;;5142878;27;19982;-47
2022/05/11 04:40:24;;;;;;;;;;;20.10;53.90;;;;;;5124071;27;20387;-44
2022/05/11 04:42:50;;;;;;;;;;;19.80;53.50;;;;;;5148262;27;19927;-47
2022/05/11 04:45:15;;;;;;;;;;;19.70;52.60;;;;;;5140377;27;20960;-50
2022/05/11 04:47:41;;;;;;;;;;;20.30;55.60;;;;;;5142795;27;20328;-53
2022/05/11 04:50:07;;;;;;;;;;;21.20;55.80;;;;;;5148267;27;20030;-46
2022/05/11 04:52:33;;;;;;;;;;;21.70;54.00;;;;;;5124703;27;19930;-46
2022/05/11 04:54:59;;;;;;;;;;;20.30;53.80;;;;;;5129689;27;19923;-44
2022/05/11 04:57:25;;;;;;;;;;;20.00;53.10;;;;;;5143310;27;20009;-44
2022/05/11 04:59:51;;;;;;;;;;;19.80;52.60;;;;;;5143401;27;20009;-45
2022/05/11 05:02:18;;;;;;;;;;;20.20;54.80;;;;;;5128088;27;19934;-50
2022/05/11 05:04:44;;;;;;;;;;;21.00;55.80;;;;;;5141136;27;19931;-46
2022/05/11 05:07:10;;;;;;;;;;;21.60;54.00;;;;;;5142532;27;20422;-57
2022/05/11 05:09:36;;;;;;;;;;;21.50;53.50;;;;;;5147941;27;20170;-60
2022/05/11 05:12:02;;;;;;;;;;;21.80;51.90;;;;;;5124039;27;19923;-58
2022/05/11 05:14:28;;;;;;;;;;;21.80;51.20;;;;;;5147962;27;19975;-58
2022/05/11 05:16:59;;;;;;;;;;;21.80;50.70;;;;;;5142689;27;19932;-60
2022/05/11 05:19:24;;;;;;;;;;;22.00;50.10;;;;;;5142453;27;20220;-59
2022/05/11 05:21:50;;;;;;;;;;;22.00;49.60;;;;;;5144634;27;20283;-59
2022/05/11 05:24:16;;;;;;;;;;;22.10;49.40;;;;;;5141619;27;19931;-56
2022/05/11 05:26:42;;;;;;;;;;;22.20;49.30;;;;;;5142116;27;20088;-57
2022/05/11 05:31:52;;;;;;;;;;;22.30;48.80;;;;;;5142277;27;19935;-57
2022/05/11 05:34:18;;;;;;;;;;;22.30;48.50;;;;;;5142208;27;19927;-59
2022/05/11 05:36:43;;;;;;;;;;;22.40;48.40;;;;;;5147818;27;20395;-59
2022/05/11 05:39:09;;;;;;;;;;;22.50;48.30;;;;;;5140163;27;20126;-58
2022/05/11 05:41:35;;;;;;;;;;;22.60;48.00;;;;;;5145855;27;19927;-59
2022/05/11 05:44:01;;;;;;;;;;;22.60;47.70;;;;;;5141761;27;19965;-57
2022/05/11 05:46:27;;;;;;;;;;;22.70;47.50;;;;;;5142110;27;19923;-56
2022/05/11 05:48:52;;;;;;;;;;;22.00;48.60;;;;;;5147195;27;20302;-58
2022/05/11 05:51:19;;;;;;;;;;;21.60;48.70;;;;;;5141863;27;19938;-58
2022/05/11 05:53:45;;;;;;;;;;;21.60;50.30;;;;;;5142099;27;20295;-58
2022/05/11 05:56:11;;;;;;;;;;;21.80;50.40;;;;;;5147431;27;20295;-58
2022/05/11 05:58:37;;;;;;;;;;;21.80;50.10;;;;;;5139127;27;20338;-59
2022/05/11 06:01:02;;;;;;;;;;;21.80;50.00;;;;;;5145973;27;20001;-56
2022/05/11 06:03:29;;;;;;;;;;;21.80;49.70;;;;;;5142352;27;19930;-58
2022/05/11 06:05:55;;;;;;;;;;;21.90;49.70;;;;;;5142002;27;19936;-58
2022/05/11 06:08:21;;;;;;;;;;;21.80;49.90;;;;;;5147025;27;20048;-60
2022/05/11 06:10:47;;;;;;;;;;;21.90;49.70;;;;;;5142079;27;20301;-57
2022/05/11 06:13:13;;;;;;;;;;;21.90;49.60;;;;;;5142003;27;20258;-59
2022/05/11 06:15:39;;;;;;;;;;;21.90;49.60;;;;;;5145333;27;19930;-58
2022/05/11 06:18:06;;;;;;;;;;;22.00;49.50;;;;;;5139904;27;19923;-60
2022/05/11 06:20:32;;;;;;;;;;;21.90;49.40;;;;;;5142951;27;19930;-58
2022/05/11 06:22:58;;;;;;;;;;;21.90;49.50;;;;;;5145689;27;19923;-59
2022/05/11 06:25:24;;;;;;;;;;;22.00;49.60;;;;;;5141321;27;19926;-59
2022/05/11 06:27:50;;;;;;;;;;;22.00;49.40;;;;;;5146863;27;19981;-58
2022/05/11 06:30:16;;;;;;;;;;;22.00;49.60;;;;;;5141667;27;20009;-60
2022/05/11 06:32:42;;;;;;;;;;;22.00;49.70;;;;;;5141817;27;19927;-58
2022/05/11 06:35:08;;;;;;;;;;;21.90;49.80;;;;;;5143921;27;19931;-59
2022/05/11 06:37:34;;;;;;;;;;;22.00;49.70;;;;;;5140654;27;20014;-57
2022/05/11 06:39:59;;;;;;;;;;;22.10;49.50;;;;;;5122182;27;19974;-57
2022/05/11 06:42:27;;;;;;;;;;;21.40;50.40;;;;;;5146928;27;20425;-51
2022/05/11 06:44:53;;;;;;;;;;;20.10;53.40;;;;;;5141650;27;19976;-57
2022/05/11 06:47:20;;;;;;;;;;;20.20;55.80;;;;;;5146940;27;20025;-54
2022/05/11 06:49:46;;;;;;;;;;;21.00;53.90;;;;;;5141965;27;20021;-58
2022/05/11 06:52:11;;;;;;;;;;;21.40;52.70;;;;;;5140100;27;20310;-53
2022/05/11 07:00:06;;;;;;;;;;;21.80;50.90;;;;;;5139304;27;20378;-54
2022/05/11 07:02:34;;;;;;;;;;;21.90;50.50;;;;;;5126539;27;20022;-53
2022/05/11 07:05:00;;;;;;;;;;;21.80;50.30;;;;;;5141523;27;19923;-56
2022/05/11 07:07:26;;;;;;;;;;;22.00;50.10;;;;;;5123490;27;19939;-56
2022/05/11 07:09:52;;;;;;;;;;;22.00;50.00;;;;;;5146316;27;20014;-57
2022/05/11 07:12:17;;;;;;;;;;;21.90;50.40;;;;;;5138715;27;20385;-54
2022/05/11 07:14:44;;;;;;;;;;;21.90;50.40;;;;;;5142062;27;20404;-55
2022/05/11 07:17:10;;;;;;;;;;;22.00;50.10;;;;;;5144944;27;19923;-56
2022/05/11 07:19:39;;;;;;;;;;;22.10;49.60;;;;;;5141037;27;19934;-56
2022/05/11 07:22:05;;;;;;;;;;;22.10;49.40;;;;;;5146258;27;19923;-54
2022/05/11 07:24:31;;;;;;;;;;;21.70;49.50;;;;;;5141238;27;20347;-54
2022/05/11 07:26:57;;;;;;;;;;;20.70;51.50;;;;;;5122073;27;19930;-54
2022/05/11 07:29:22;;;;;;;;;;;21.20;48.60;;;;;;5124714;27;19924;-50
2022/05/11 07:31:49;;;;;;;;;;;21.40;48.10;;;;;;5139627;27;19981;-54
2022/05/11 07:34:15;;;;;;;;;;;21.60;49.80;;;;;;5140646;27;19923;-56
2022/05/11 07:36:40;;;;;;;;;;;21.80;50.40;;;;;;5145982;27;19945;-56
2022/05/11 07:39:06;;;;;;;;;;;21.90;50.20;;;;;;5141075;27;20334;-54
2022/05/11 07:41:32;;;;;;;;;;;22.00;49.60;;;;;;5146175;27;19927;-52
2022/05/11 07:43:58;;;;;;;;;;;22.00;49.30;;;;;;5141146;27;19927;-54
2022/05/11 07:46:26;;;;;;;;;;;22.00;48.90;;;;;;5140946;27;20017;-54
2022/05/11 07:48:52;;;;;;;;;;;22.10;48.50;;;;;;5143230;27;19923;-55
2022/05/11 07:51:18;;;;;;;;;;;22.10;48.20;;;;;;5140178;27;19923;-56
2022/05/11 07:53:44;;;;;;;;;;;22.20;48.20;;;;;;5143609;27;20030;-50
2022/05/11 08:01:39;;;;;;;;;;;20.30;53.10;;;;;;5145189;27;19971;-51
2022/05/11 08:04:05;;;;;;;;;;;21.30;50.50;;;;;;5149714;27;19927;-53
2022/05/11 08:06:30;;;;;;;;;;;21.80;49.10;;;;;;5124283;27;19923;-49
2022/05/11 08:08:56;;;;;;;;;;;22.00;48.70;;;;;;5145030;27;19945;-51
2022/05/11 08:11:22;;;;;;;;;;;22.00;48.40;;;;;;5148771;27;20434;-49
2022/05/11 08:13:48;;;;;;;;;;;22.20;47.90;;;;;;5126397;27;19929;-47
2022/05/11 08:16:14;;;;;;;;;;;22.20;47.70;;;;;;5149355;27;19934;-49
2022/05/11 08:18:39;;;;;;;;;;;22.20;47.70;;;;;;5145055;27;19923;-48
2022/05/11 08:21:05;;;;;;;;;;;22.10;47.60;;;;;;5145122;27;20018;-48
2022/05/11 08:23:31;;;;;;;;;;;22.20;47.50;;;;;;5148555;27;19927;-49
2022/05/11 08:25:57;;;;;;;;;;;22.20;47.30;;;;;;5142785;27;19923;-49
2022/05/11 08:28:23;;;;;;;;;;;22.20;47.30;;;;;;5144401;27;19966;-47
2022/05/11 08:33:35;;;;;;;;;;;21.60;47.60;;;;;;5143133;27;19927;-45
2022/05/11 08:36:06;;;;;;;;;;;20.20;51.20;;;;;;5127144;27;20289;-47
2022/05/11 08:38:32;;;;;;;;;;;20.40;51.50;;;;;;5149025;27;19958;-44
2022/05/11 08:40:59;;;;;;;;;;;21.50;49.00;;;;;;5145016;27;19930;-45
2022/05/11 08:43:31;;;;;;;;;;;21.90;47.70;;;;;;5146726;27;20014;-45
2022/05/11 08:46:16;;;;;;;;;;;22.00;47.40;;;;;;5143628;27;19922;-44
2022/05/11 08:48:45;;;;;;;;;;;22.00;47.70;;;;;;5144526;27;19924;-44
2022/05/11 08:51:12;;;;;;;;;;;22.10;47.40;;;;;;5148994;27;20056;-43
2022/05/11 08:53:39;;;;;;;;;;;22.20;47.30;;;;;;5143749;27;19929;-44
2022/05/11 08:56:06;;;;;;;;;;;22.20;46.90;;;;;;5143002;27;19931;-44
2022/05/11 08:58:34;;;;;;;;;;;21.20;48.70;;;;;;5148421;27;19923;-45
2022/05/11 09:01:01;;;;;;;;;;;20.00;51.20;;;;;;5141516;27;20390;-45
2022/05/11 09:03:31;;;;;;;;;;;20.20;51.60;;;;;;5144092;27;20253;-45
2022/05/11 09:06:04;;;;;;;;;;;21.30;48.90;;;;;;5148977;27;20444;-45
2022/05/11 09:08:32;;;;;;;;;;;21.80;47.50;;;;;;5127108;27;19930;-48
2022/05/11 09:10:58;;;;;;;;;;;22.00;47.30;;;;;;5141429;27;19942;-46
2022/05/11 09:13:27;;;;;;;;;;;22.00;47.30;;;;;;5130404;27;19947;-45
2022/05/11 09:15:56;;;;;;;;;;;22.10;47.40;;;;;;5127141;27;20048;-45
2022/05/11 09:18:31;;;;;;;;;;;22.10;47.40;;;;;;5148639;27;20042;-46
2022/05/11 09:20:57;;;;;;;;;;;22.20;47.40;;;;;;5143730;27;20244;-46
2022/05/11 09:23:26;;;;;;;;;;;22.20;47.40;;;;;;5126071;27;20047;-45
2022/05/11 09:26:14;;;;;;;;;;;22.20;47.10;;;;;;5130125;27;20400;-47
2022/05/11 09:28:40;;;;;;;;;;;22.30;47.10;;;;;;5144000;27;19953;-44
2022/05/11 09:31:09;;;;;;;;;;;21.50;47.60;;;;;;5144461;27;20362;-45
2022/05/11 09:33:38;;;;;;;;;;;21.20;47.40;;;;;;5148662;27;20017;-47
2022/05/11 09:36:03;;;;;;;;;;;21.50;45.50;;;;;;5145508;27;19923;-47
2022/05/11 09:38:33;;;;;;;;;;;21.80;46.60;;;;;;5142971;27;19930;-50
2022/05/11 09:41:00;;;;;;;;;;;22.00;47.80;;;;;;5147682;27;20343;-48
2022/05/11 09:43:29;;;;;;;;;;;22.10;47.80;;;;;;5123320;27;19953;-43
2022/05/11 09:45:55;;;;;;;;;;;22.10;47.50;;;;;;5142303;27;20158;-45
2022/05/11 09:48:22;;;;;;;;;;;20.30;52.30;;;;;;5147369;27;19948;-46
2022/05/11 09:50:52;;;;;;;;;;;20.00;53.10;;;;;;5124981;27;19946;-46
2022/05/11 09:53:24;;;;;;;;;;;20.50;52.70;;;;;;5147592;27;19927;-51
2022/05/11 09:55:50;;;;;;;;;;;22.00;49.70;;;;;;5144319;27;20329;-47
2022/05/11 09:58:45;;;;;;;;;;;21.90;49.40;;;;;;5121610;27;19923;-45
2022/05/11 10:01:13;;;;;;;;;;;21.10;51.10;;;;;;5103118;27;20022;-54
2022/05/11 10:03:40;;;;;;;;;;;21.00;51.00;;;;;;5146928;27;19929;-49
2022/05/11 10:06:06;;;;;;;;;;;20.90;51.60;;;;;;5121726;27;20018;-47
2022/05/11 10:08:33;;;;;;;;;;;20.90;51.30;;;;;;5147237;27;19931;-47
2022/05/11 10:11:04;;;;;;;;;;;20.90;51.40;;;;;;5123610;27;20026;-46
2022/05/11 10:13:30;;;;;;;;;;;20.80;51.60;;;;;;5123056;27;19931;-48
2022/05/11 10:22:00;;;;;;;;;;;20.70;51.90;;;;;;5141927;27;19930;-47
2022/05/11 10:24:47;;;;;;;;;;;21.00;51.20;;;;;;5127286;27;20387;-53
2022/05/11 10:27:26;;;;;;;;;;;20.80;51.50;;;;;;5128228;27;19938;-49
2022/05/11 10:30:04;;;;;;;;;;;20.80;51.60;;;;;;5122677;27;20394;-48
2022/05/11 10:32:35;;;;;;;;;;;20.80;51.50;;;;;;5141646;27;19986;-48
2022/05/11 10:35:06;;;;;;;;;;;20.90;51.10;;;;;;5144411;27;21231;-48
2022/05/11 10:37:37;;;;;;;;;;;20.90;50.80;;;;;;5141843;27;20297;-51
2022/05/11 10:40:11;;;;;;;;;;;20.70;51.20;;;;;;5142380;27;19934;-49
2022/05/11 10:42:42;;;;;;;;;;;20.80;51.00;;;;;;5128707;27;20423;-48
2022/05/11 10:45:10;;;;;;;;;;;20.80;50.50;;;;;;5142509;27;19923;-48
2022/05/11 10:47:39;;;;;;;;;;;21.10;49.70;;;;;;5144806;27;19927;-52
2022/05/11 10:50:06;;;;;;;;;;;21.10;49.40;;;;;;5146185;27;19930;-47
2022/05/11 10:52:51;;;;;;;;;;;20.90;49.60;;;;;;5139775;27;19937;-49
2022/05/11 10:55:23;;;;;;;;;;;21.00;49.30;;;;;;5144946;27;20014;-53
2022/05/11 10:58:05;;;;;;;;;;;21.10;48.70;;;;;;5146025;27;20029;-48
2022/05/11 11:00:32;;;;;;;;;;;20.90;48.80;;;;;;5106612;27;19934;-48
2022/05/11 11:03:04;;;;;;;;;;;21.00;48.50;;;;;;5146686;27;19951;-50
2022/05/11 11:05:37;;;;;;;;;;;20.80;48.60;;;;;;5126310;27;19927;-48
2022/05/11 11:08:07;;;;;;;;;;;21.10;47.60;;;;;;5122966;27;19923;-50
2022/05/11 11:10:41;;;;;;;;;;;21.00;47.40;;;;;;5125667;27;20422;-51
2022/05/11 11:13:13;;;;;;;;;;;21.00;47.40;;;;;;5122686;27;19980;-46
2022/05/11 11:15:41;;;;;;;;;;;20.90;47.90;;;;;;5141948;27;20025;-46
2022/05/11 11:18:07;;;;;;;;;;;21.00;47.40;;;;;;5128525;27;19924;-46
2022/05/11 11:20:35;;;;;;;;;;;20.80;47.50;;;;;;5123216;27;19923;-47
2022/05/11 11:23:00;;;;;;;;;;;21.00;47.20;;;;;;5142156;27;19927;-48
2022/05/11 11:25:26;;;;;;;;;;;20.90;47.30;;;;;;5146978;27;19930;-46
2022/05/11 11:28:02;;;;;;;;;;;21.00;47.40;;;;;;5144335;27;20320;-46
2022/05/11 11:30:28;;;;;;;;;;;20.90;47.40;;;;;;5143845;27;20492;-48
2022/05/11 11:33:26;;;;;;;;;;;20.80;47.60;;;;;;5150079;27;19941;-47
2022/05/11 11:35:58;;;;;;;;;;;20.80;48.00;;;;;;5088156;27;19937;-46
2022/05/11 11:38:30;;;;;;;;;;;20.80;48.10;;;;;;5145635;27;19927;-46
2022/05/11 11:41:14;;;;;;;;;;;20.90;47.70;;;;;;5150412;27;19963;-48
2022/05/11 11:43:52;;;;;;;;;;;21.10;47.00;;;;;;5145583;27;19923;-47
2022/05/11 11:46:28;;;;;;;;;;;21.00;47.40;;;;;;5143843;27;20271;-51
2022/05/11 11:49:10;;;;;;;;;;;21.00;47.40;;;;;;5129862;27;20331;-46
2022/05/11 11:51:52;;;;;;;;;;;20.90;47.80;;;;;;5144870;27;19923;-46
2022/05/11 11:54:36;;;;;;;;;;;20.90;48.00;;;;;;5145338;27;19924;-47
2022/05/11 11:57:03;;;;;;;;;;;20.80;48.50;;;;;;5149601;27;19923;-49
2022/05/11 11:59:29;;;;;;;;;;;21.00;48.00;;;;;;5123002;27;20035;-47
2022/05/11 12:02:04;;;;;;;;;;;21.00;47.10;;;;;;5145284;27;20478;-48
2022/05/11 12:04:37;;;;;;;;;;;20.90;46.90;;;;;;5148472;27;19983;-49
2022/05/11 12:15:26;;;;;;;;;;;21.00;46.40;;;;;;5133400;27;19923;-46
2022/05/11 12:17:51;;;;;;;;;;;21.00;46.40;;;;;;5144810;27;19988;-46
2022/05/11 12:20:18;;;;;;;;;;;21.10;45.50;;;;;;5131170;27;19927;-47
2022/05/11 12:23:03;;;;;;;;;;;21.00;45.00;;;;;;5143355;27;19923;-47
2022/05/11 12:25:33;;;;;;;;;;;21.10;44.50;;;;;;5142363;27;20294;-46
2022/05/11 12:28:00;;;;;;;;;;;21.30;43.40;;;;;;5148739;27;19987;-45
2022/05/11 12:30:39;;;;;;;;;;;21.30;43.20;;;;;;5144458;27;21199;-47
2022/05/11 12:33:05;;;;;;;;;;;21.10;43.60;;;;;;5144662;27;20107;-48
2022/05/11 12:35:32;;;;;;;;;;;21.30;42.80;;;;;;5148951;27;20396;-47
2022/05/11 12:37:59;;;;;;;;;;;21.10;43.00;;;;;;5143483;27;19930;-47
2022/05/11 12:40:26;;;;;;;;;;;21.00;42.80;;;;;;5126169;27;20289;-50
2022/05/11 12:43:06;;;;;;;;;;;21.30;41.90;;;;;;5146812;27;20301;-48
2022/05/11 12:45:44;;;;;;;;;;;21.30;41.60;;;;;;5144112;27;19970;-45
2022/05/11 12:48:14;;;;;;;;;;;21.50;40.90;;;;;;5144513;27;19929;-48
2022/05/11 12:50:48;;;;;;;;;;;21.30;40.80;;;;;;5129511;27;19933;-47
2022/05/11 12:53:16;;;;;;;;;;;21.30;40.70;;;;;;5144562;27;20017;-47
2022/05/11 12:55:50;;;;;;;;;;;21.30;40.70;;;;;;5144620;27;19967;-47
2022/05/11 12:58:17;;;;;;;;;;;21.20;41.50;;;;;;5148937;27;19923;-48
2022/05/11 13:00:43;;;;;;;;;;;21.30;41.70;;;;;;5142216;27;20315;-46
2022/05/11 13:03:22;;;;;;;;;;;21.40;41.50;;;;;;5144089;27;19923;-51
2022/05/11 13:05:48;;;;;;;;;;;21.30;41.50;;;;;;5148636;27;19967;-47
2022/05/11 13:08:17;;;;;;;;;;;21.30;41.30;;;;;;5108977;27;20370;-47
2022/05/11 13:10:42;;;;;;;;;;;21.40;40.80;;;;;;5148103;27;20019;-51
2022/05/11 13:13:12;;;;;;;;;;;21.30;41.50;;;;;;5144631;27;20373;-46
2022/05/11 13:15:39;;;;;;;;;;;21.40;41.20;;;;;;5144113;27;19930;-47
2022/05/11 13:18:24;;;;;;;;;;;21.30;41.00;;;;;;5147193;27;19923;-45
2022/05/11 13:20:50;;;;;;;;;;;21.30;40.80;;;;;;5142629;27;19922;-46
2022/05/11 13:23:28;;;;;;;;;;;21.30;40.90;;;;;;5124943;27;20631;-45
2022/05/11 13:25:54;;;;;;;;;;;21.50;40.10;;;;;;5148340;27;20047;-45
2022/05/11 13:28:22;;;;;;;;;;;21.50;39.90;;;;;;5143648;27;19929;-47
2022/05/11 13:30:48;;;;;;;;;;;21.80;39.40;;;;;;5124880;27;20412;-46
2022/05/11 13:33:27;;;;;;;;;;;21.60;39.80;;;;;;5148235;27;19927;-46
2022/05/11 13:36:22;;;;;;;;;;;21.60;39.90;;;;;;5143350;27;19933;-47
2022/05/11 13:38:48;;;;;;;;;;;21.60;39.70;;;;;;5119645;27;19931;-47
2022/05/11 13:41:16;;;;;;;;;;;21.60;39.50;;;;;;5147631;27;19927;-50
2022/05/11 13:43:46;;;;;;;;;;;21.80;39.00;;;;;;5125113;27;20010;-48
2022/05/11 13:46:12;;;;;;;;;;;21.50;39.30;;;;;;5144087;27;20013;-46
2022/05/11 13:48:39;;;;;;;;;;;21.60;39.30;;;;;;5147705;27;20405;-46
2022/05/11 13:51:15;;;;;;;;;;;21.60;39.30;;;;;;5123940;27;20010;-47
2022/05/11 13:53:41;;;;;;;;;;;21.50;39.60;;;;;;5143806;27;20612;-46
2022/05/11 13:56:09;;;;;;;;;;;21.60;39.90;;;;;;5145790;27;20007;-47
2022/05/11 13:58:39;;;;;;;;;;;21.50;39.90;;;;;;5143114;27;19989;-46
2022/05/11 14:01:15;;;;;;;;;;;21.50;39.70;;;;;;5146475;27;20059;-48
2022/05/11 14:03:51;;;;;;;;;;;21.60;39.20;;;;;;5148013;27;20013;-46
2022/05/11 14:06:18;;;;;;;;;;;21.80;38.60;;;;;;5123784;27;20220;-46
2022/05/11 14:08:43;;;;;;;;;;;21.60;39.00;;;;;;5148060;27;20362;-46
2022/05/11 14:11:09;;;;;;;;;;;21.60;38.70;;;;;;5143641;27;19927;-46
2022/05/11 14:13:35;;;;;;;;;;;21.70;38.90;;;;;;5123494;27;19966;-46
2022/05/11 14:16:01;;;;;;;;;;;21.60;39.30;;;;;;5126279;27;19930;-46
2022/05/11 14:18:28;;;;;;;;;;;21.60;39.60;;;;;;5143489;27;19926;-47
2022/05/11 14:20:54;;;;;;;;;;;21.60;39.60;;;;;;5143201;27;19934;-47
2022/05/11 14:23:20;;;;;;;;;;;21.60;39.70;;;;;;5147533;27;19923;-53
2022/05/11 14:25:46;;;;;;;;;;;21.70;39.80;;;;;;5143391;27;19934;-46
2022/05/11 14:28:11;;;;;;;;;;;21.60;39.80;;;;;;5127803;27;19979;-53
2022/05/11 14:30:38;;;;;;;;;;;21.40;40.10;;;;;;5144688;27;19923;-46
2022/05/11 14:33:04;;;;;;;;;;;21.60;39.70;;;;;;5140633;27;19971;-49
2022/05/11 14:35:29;;;;;;;;;;;21.40;39.70;;;;;;5127965;27;19974;-45
2022/05/11 14:37:55;;;;;;;;;;;21.40;39.90;;;;;;5142631;27;20357;-47
2022/05/11 14:40:23;;;;;;;;;;;21.70;39.00;;;;;;5142975;27;19924;-47
2022/05/11 14:42:49;;;;;;;;;;;21.60;38.90;;;;;;5147053;27;19927;-48
2022/05/11 14:45:15;;;;;;;;;;;21.70;38.60;;;;;;5105455;27;19973;-46
2022/05/11 14:47:41;;;;;;;;;;;21.60;38.70;;;;;;5143079;27;20393;-51
2022/05/11 14:50:08;;;;;;;;;;;21.60;39.30;;;;;;5127060;27;20450;-49
2022/05/11 14:52:34;;;;;;;;;;;21.40;39.70;;;;;;5140830;27;19923;-46
2022/05/11 14:55:00;;;;;;;;;;;21.50;39.70;;;;;;5146436;27;19929;-46
2022/05/11 15:03:09;;;;;;;;;;;21.70;39.40;;;;;;5147077;27;20401;-53
2022/05/11 15:05:36;;;;;;;;;;;21.80;39.50;;;;;;5132036;27;19946;-47